createdAt,value
2023-05-20T00:00:53.827Z,95713.25
2023-05-20T00:03:21.428Z,95713.00
2023-05-20T00:05:50.307Z,95721.63
2023-05-20T00:08:19.701Z,95730.50
2023-05-20T00:10:47.220Z,95721.63
2023-05-20T00:13:14.794Z,95704.88
2023-05-20T00:15:42.114Z,95702.75
2023-05-20T00:18:09.771Z,95701.69
2023-05-20T00:20:37.034Z,95707.31
2023-05-20T00:23:04.545Z,95709.97
2023-05-20T00:25:32.767Z,95701.63
2023-05-20T00:28:00.619Z,95705.41
2023-05-20T00:30:27.950Z,95714.00
2023-05-20T00:32:55.614Z,95714.00
2023-05-20T00:35:22.904Z,95714.56
2023-05-20T00:37:50.500Z,95704.06
2023-05-20T00:40:17.663Z,95702.16
2023-05-20T00:42:45.248Z,95706.47
2023-05-20T00:45:12.461Z,95694.66
2023-05-20T00:47:40.577Z,95697.91
2023-05-20T00:50:10.408Z,95695.97
2023-05-20T00:52:41.720Z,95688.16
2023-05-20T00:55:09.296Z,95685.47
2023-05-20T00:57:37.078Z,95690.84
2023-05-20T01:00:06.111Z,95693.81
2023-05-20T01:02:33.738Z,95699.22
2023-05-20T01:05:01.625Z,95698.66
2023-05-20T01:07:29.240Z,95692.19
2023-05-20T01:09:56.523Z,95692.19
2023-05-20T01:12:30.961Z,95687.06
2023-05-20T01:15:02.165Z,95680.34
2023-05-20T01:17:33.476Z,95680.09
2023-05-20T01:20:04.424Z,95671.19
2023-05-20T01:22:32.242Z,95684.91
2023-05-20T01:24:59.526Z,95684.94
2023-05-20T01:27:27.117Z,95677.91
2023-05-20T01:29:54.524Z,95677.63
2023-05-20T01:32:33.043Z,95681.16
2023-05-20T01:35:02.016Z,95669.00
2023-05-20T01:37:31.680Z,95674.38
2023-05-20T01:39:59.983Z,95668.75
2023-05-20T01:42:28.648Z,95680.06
2023-05-20T01:44:55.986Z,95678.16
2023-05-20T01:47:23.552Z,95665.78
2023-05-20T01:49:53.162Z,95674.59
2023-05-20T01:52:24.049Z,95673.53
2023-05-20T01:54:51.574Z,95678.38
2023-05-20T01:57:23.371Z,95674.63
2023-05-20T01:59:52.112Z,95679.50
2023-05-20T02:02:19.740Z,95663.84
2023-05-20T02:04:48.976Z,95671.69
2023-05-20T02:07:19.133Z,95680.06
2023-05-20T02:09:47.717Z,95680.03
2023-05-20T02:12:18.157Z,95686.50
2023-05-20T02:14:47.196Z,95683.00
2023-05-20T02:17:17.754Z,95681.13
2023-05-20T02:19:46.281Z,95680.06
2023-05-20T02:22:14.474Z,95687.59
2023-05-20T02:24:44.161Z,95684.63
2023-05-20T02:27:12.082Z,95690.03
2023-05-20T02:29:39.356Z,95697.00
2023-05-20T02:32:10.171Z,95694.03
2023-05-20T02:34:37.345Z,95698.09
2023-05-20T02:37:05.470Z,95701.06
2023-05-20T02:39:33.161Z,95698.38
2023-05-20T02:42:00.928Z,95707.00
2023-05-20T02:44:28.245Z,95714.28
2023-05-20T02:46:55.817Z,95711.31
2023-05-20T02:49:24.463Z,95698.38
2023-05-20T02:51:52.862Z,95700.53
2023-05-20T02:54:23.006Z,95695.38
2023-05-20T02:56:50.544Z,95695.69
2023-05-20T02:59:17.998Z,95674.94
2023-05-20T03:01:45.654Z,95687.31
2023-05-20T03:04:13.210Z,95688.94
2023-05-20T03:06:44.682Z,95700.53
2023-05-20T03:09:12.162Z,95702.66
2023-05-20T03:11:40.550Z,95697.81
2023-05-20T03:14:09.703Z,95702.38
2023-05-20T03:16:38.247Z,95695.94
2023-05-20T03:19:05.756Z,95701.88
2023-05-20T03:21:34.402Z,95697.81
2023-05-20T03:24:01.660Z,95694.00
2023-05-20T03:26:29.269Z,95686.69
2023-05-20T03:28:58.274Z,95691.56
2023-05-20T03:31:26.173Z,95695.34
2023-05-20T03:33:53.516Z,95699.38
2023-05-20T03:36:21.315Z,95698.06
2023-05-20T03:38:48.927Z,95700.97
2023-05-20T03:41:16.754Z,95689.34
2023-05-20T03:43:44.075Z,95698.25
2023-05-20T03:46:11.853Z,95704.44
2023-05-20T03:48:39.091Z,95703.03
2023-05-20T03:51:06.750Z,95714.06
2023-05-20T03:53:34.171Z,95710.03
2023-05-20T03:56:01.915Z,95694.19
2023-05-20T03:58:31.667Z,95704.47
2023-05-20T04:00:59.246Z,95707.97
2023-05-20T04:03:29.003Z,95696.63
2023-05-20T04:05:56.781Z,95706.03
2023-05-20T04:08:26.181Z,95710.03
2023-05-20T04:10:57.583Z,95714.06
2023-05-20T04:13:25.762Z,95710.84
2023-05-20T04:15:53.399Z,95713.25
2023-05-20T04:18:21.155Z,95716.53
2023-05-20T04:20:48.852Z,95710.03
2023-05-20T04:23:17.682Z,95721.63
2023-05-20T04:25:46.489Z,95712.16
2023-05-20T04:28:16.566Z,95714.59
2023-05-20T04:30:45.389Z,95707.91
2023-05-20T04:33:13.504Z,95693.66
2023-05-20T04:35:41.931Z,95705.28
2023-05-20T04:38:13.552Z,95699.34
2023-05-20T04:40:41.109Z,95698.28
2023-05-20T04:43:08.257Z,95697.22
2023-05-20T04:45:36.937Z,95696.69
2023-05-20T04:48:04.406Z,95698.53
2023-05-20T04:50:32.255Z,95707.19
2023-05-20T04:53:02.158Z,95696.44
2023-05-20T04:55:30.080Z,95716.91
2023-05-20T04:57:57.258Z,95720.38
2023-05-20T05:00:25.129Z,95711.47
2023-05-20T05:02:57.081Z,95716.59
2023-05-20T05:05:24.814Z,95709.03
2023-05-20T05:07:53.289Z,95721.13
2023-05-20T05:10:22.067Z,95712.81
2023-05-20T05:12:49.349Z,95711.75
2023-05-20T05:15:17.247Z,95714.47
2023-05-20T05:17:45.041Z,95708.03
2023-05-20T05:20:12.830Z,95714.53
2023-05-20T05:22:41.799Z,95722.59
2023-05-20T05:25:10.308Z,95716.13
2023-05-20T05:27:37.764Z,95705.09
2023-05-20T05:30:07.426Z,95724.50
2023-05-20T05:32:35.389Z,95726.66
2023-05-20T05:35:03.104Z,95729.63
2023-05-20T05:37:30.486Z,95733.41
2023-05-20T05:39:58.008Z,95731.81
2023-05-20T05:42:25.899Z,95719.69
2023-05-20T05:44:54.979Z,95724.31
2023-05-20T05:47:22.426Z,95730.81
2023-05-20T05:49:50.282Z,95714.59
2023-05-20T05:52:17.534Z,95718.09
2023-05-20T05:54:45.016Z,95735.09
2023-05-20T05:57:12.569Z,95740.47
2023-05-20T05:59:40.833Z,95734.00
2023-05-20T06:02:10.930Z,95729.69
2023-05-20T06:04:38.694Z,95726.44
2023-05-20T06:07:06.063Z,95721.00
2023-05-20T06:09:33.880Z,95724.75
2023-05-20T06:12:02.741Z,95734.44
2023-05-20T06:14:30.482Z,95733.81
2023-05-20T06:16:58.003Z,95732.66
2023-05-20T06:19:25.658Z,95731.81
2023-05-20T06:21:52.976Z,95728.06
2023-05-20T06:24:23.095Z,95724.50
2023-05-20T06:26:53.736Z,95740.16
2023-05-20T06:29:21.312Z,95734.69
2023-05-20T06:31:48.597Z,95731.91
2023-05-20T06:34:16.279Z,95716.38
2023-05-20T06:36:43.559Z,95734.16
2023-05-20T06:39:12.694Z,95732.84
2023-05-20T06:41:43.262Z,95723.69
2023-05-20T06:44:11.443Z,95722.78
2023-05-20T06:47:04.919Z,95717.56
2023-05-20T06:49:32.881Z,95721.31
2023-05-20T06:52:01.129Z,95714.88
2023-05-20T06:54:29.816Z,95701.03
2023-05-20T06:56:57.104Z,95706.06
2023-05-20T06:59:24.709Z,95697.56
2023-05-20T07:01:52.617Z,95703.31
2023-05-20T07:04:20.370Z,95704.34
2023-05-20T07:06:48.292Z,95699.91
2023-05-20T07:09:16.629Z,95691.25
2023-05-20T07:11:43.883Z,95686.13
2023-05-20T07:14:12.564Z,95684.03
2023-05-20T07:16:40.943Z,95687.88
2023-05-20T07:19:09.458Z,95671.28
2023-05-20T07:21:36.733Z,95683.56
2023-05-20T07:24:10.412Z,95686.16
2023-05-20T07:26:38.015Z,95664.84
2023-05-20T07:29:06.066Z,95670.06
2023-05-20T07:31:33.989Z,95663.06
2023-05-20T07:34:01.781Z,95664.44
2023-05-20T07:36:29.208Z,95660.59
2023-05-20T07:39:03.991Z,95653.88
2023-05-20T07:41:36.047Z,95659.91
2023-05-20T07:44:05.819Z,95660.84
2023-05-20T07:46:35.839Z,95655.00
2023-05-20T07:49:05.299Z,95632.88
2023-05-20T07:51:33.802Z,95644.72
2023-05-20T07:54:01.411Z,95642.03
2023-05-20T07:56:29.304Z,95641.78
2023-05-20T07:59:00.722Z,95635.16
2023-05-20T08:01:31.997Z,95637.63
2023-05-20T08:04:01.279Z,95629.94
2023-05-20T08:06:29.913Z,95626.25
2023-05-20T08:08:58.646Z,95616.69
2023-05-20T08:11:35.486Z,95624.34
2023-05-20T08:14:03.483Z,95614.13
2023-05-20T08:16:37.807Z,95617.25
2023-05-20T08:19:05.708Z,95603.59
2023-05-20T08:21:39.415Z,95609.72
2023-05-20T08:24:07.353Z,95596.72
2023-05-20T08:26:36.031Z,95599.22
2023-05-20T08:29:03.757Z,95597.50
2023-05-20T08:31:31.022Z,95596.56
2023-05-20T08:34:00.322Z,95586.69
2023-05-20T08:36:27.669Z,95597.59
2023-05-20T08:38:56.037Z,95586.31
2023-05-20T08:41:26.039Z,95584.47
2023-05-20T08:43:54.591Z,95584.78
2023-05-20T08:46:23.252Z,95578.06
2023-05-20T08:48:51.621Z,95567.91
2023-05-20T08:51:23.739Z,95582.09
2023-05-20T08:53:52.342Z,95585.31
2023-05-20T08:56:20.122Z,95577.53
2023-05-20T08:58:47.805Z,95573.06
2023-05-20T09:01:15.104Z,95579.13
2023-05-20T09:03:43.545Z,95571.34
2023-05-20T09:06:10.896Z,95573.25
2023-05-20T09:08:38.461Z,95567.28
2023-05-20T09:11:05.932Z,95550.50
2023-05-20T09:13:33.610Z,95554.72
2023-05-20T09:16:04.711Z,95549.75
2023-05-20T09:18:32.416Z,95554.63
2023-05-20T09:21:09.922Z,95552.66
2023-05-20T09:23:38.672Z,95551.66
2023-05-20T09:26:06.257Z,95539.59
2023-05-20T09:28:36.260Z,95538.53
2023-05-20T09:31:05.797Z,95537.81
2023-05-20T09:33:39.660Z,95532.31
2023-05-20T09:36:11.719Z,95530.28
2023-05-20T09:38:40.599Z,95517.53
2023-05-20T09:41:15.125Z,95533.56
2023-05-20T09:43:43.362Z,95524.59
2023-05-20T09:46:11.081Z,95531.03
2023-05-20T09:48:40.019Z,95525.44
2023-05-20T09:51:08.292Z,95522.34
2023-05-20T09:53:36.324Z,95520.31
2023-05-20T09:56:04.076Z,95508.69
2023-05-20T09:58:36.128Z,95506.97
2023-05-20T10:01:03.913Z,95520.03
2023-05-20T10:03:33.454Z,95515.53
2023-05-20T10:06:21.766Z,95514.81
2023-05-20T10:09:07.567Z,95524.47
2023-05-20T10:11:45.242Z,95527.22
2023-05-20T10:14:31.819Z,95524.34
2023-05-20T10:17:17.681Z,95516.44
2023-05-20T10:19:45.362Z,95505.56
2023-05-20T10:22:12.798Z,95515.44
2023-05-20T10:24:44.657Z,95511.03
2023-05-20T10:27:18.261Z,95513.06
2023-05-20T10:29:54.261Z,95507.28
2023-05-20T10:32:28.456Z,95494.28
2023-05-20T10:35:05.621Z,95497.47
2023-05-20T10:37:42.130Z,95506.09
2023-05-20T10:40:14.656Z,95502.09
2023-05-20T10:42:42.990Z,95503.09
2023-05-20T10:45:11.096Z,95488.69
2023-05-20T10:47:53.807Z,95487.50
2023-05-20T10:50:38.847Z,95495.22
2023-05-20T10:53:13.004Z,95486.28
2023-05-20T10:55:53.554Z,95489.06
2023-05-20T10:58:24.932Z,95480.72
2023-05-20T11:00:54.745Z,95472.47
2023-05-20T11:03:23.412Z,95472.78
2023-05-20T11:05:52.036Z,95468.28
2023-05-20T11:08:27.619Z,95463.41
2023-05-20T11:10:58.303Z,95461.50
2023-05-20T11:13:27.142Z,95459.53
2023-05-20T11:15:55.738Z,95449.09
2023-05-20T11:18:23.081Z,95445.72
2023-05-20T11:20:51.315Z,95441.59
2023-05-20T11:23:18.888Z,95431.38
2023-05-20T11:25:46.650Z,95449.59
2023-05-20T11:28:14.731Z,95438.22
2023-05-20T11:30:43.764Z,95435.97
2023-05-20T11:33:15.444Z,95435.88
2023-05-20T11:35:50.233Z,95415.22
2023-05-20T11:38:18.521Z,95435.50
2023-05-20T11:40:56.826Z,95431.00
2023-05-20T11:43:24.864Z,95434.53
2023-05-20T11:45:59.683Z,95429.78
2023-05-20T11:48:27.597Z,95428.16
2023-05-20T11:50:56.650Z,95429.00
2023-05-20T11:53:27.543Z,95427.44
2023-05-20T11:56:00.317Z,95432.47
2023-05-20T11:58:33.033Z,95427.09
2023-05-20T12:01:09.483Z,95430.16
2023-05-20T12:03:48.165Z,95430.03
2023-05-20T12:06:17.588Z,95419.59
2023-05-20T12:08:44.842Z,95421.94
2023-05-20T12:11:12.758Z,95435.47
2023-05-20T12:13:41.011Z,95435.94
2023-05-20T12:16:11.275Z,95428.13
2023-05-20T12:18:38.970Z,95422.50
2023-05-20T12:21:06.650Z,95413.59
2023-05-20T12:23:34.407Z,95419.38
2023-05-20T12:26:03.390Z,95405.88
2023-05-20T12:28:32.829Z,95410.59
2023-05-20T12:31:01.097Z,95412.03
2023-05-20T12:33:28.459Z,95400.97
2023-05-20T12:35:56.070Z,95404.41
2023-05-20T12:38:23.312Z,95406.22
2023-05-20T12:40:51.230Z,95400.97
2023-05-20T12:43:18.435Z,95405.97
2023-05-20T12:45:46.096Z,95398.91
2023-05-20T12:48:13.537Z,95409.44
2023-05-20T12:50:41.300Z,95409.22
2023-05-20T12:53:08.571Z,95396.78
2023-05-20T12:55:36.084Z,95389.03
2023-05-20T12:58:03.383Z,95402.91
2023-05-20T13:00:31.537Z,95400.19
2023-05-20T13:03:02.067Z,95403.25
2023-05-20T13:05:29.847Z,95401.41
2023-05-20T13:07:56.998Z,95402.56
2023-05-20T13:10:24.657Z,95391.91
2023-05-20T13:12:51.886Z,95401.44
2023-05-20T13:15:19.482Z,95383.78
2023-05-20T13:17:46.762Z,95384.41
2023-05-20T13:20:14.344Z,95376.69
2023-05-20T13:22:41.557Z,95375.09
2023-05-20T13:25:09.744Z,95387.81
2023-05-20T13:27:37.088Z,95374.84
2023-05-20T13:30:06.400Z,95355.34
2023-05-20T13:32:33.751Z,95369.72
2023-05-20T13:35:01.491Z,95366.88
2023-05-20T13:37:28.831Z,95363.31
2023-05-20T13:39:56.415Z,95375.25
2023-05-20T13:42:24.057Z,95369.59
2023-05-20T13:44:51.615Z,95354.31
2023-05-20T13:47:19.025Z,95369.59
2023-05-20T13:49:46.669Z,95361.56
2023-05-20T13:52:13.921Z,95355.72
2023-05-20T13:54:43.206Z,95350.97
2023-05-20T13:57:10.728Z,95361.75
2023-05-20T13:59:38.811Z,95358.94
2023-05-20T14:02:07.195Z,95354.03
2023-05-20T14:04:38.400Z,95354.38
2023-05-20T14:07:08.560Z,95357.91
2023-05-20T14:09:37.462Z,95353.41
2023-05-20T14:12:05.967Z,95368.75
2023-05-20T14:14:34.558Z,95359.28
2023-05-20T14:17:01.930Z,95365.19
2023-05-20T14:19:30.309Z,95359.75
2023-05-20T14:22:01.272Z,95370.75
2023-05-20T14:24:29.295Z,95364.59
2023-05-20T14:26:56.532Z,95363.44
2023-05-20T14:29:24.180Z,95372.47
2023-05-20T14:31:51.543Z,95369.88
2023-05-20T14:34:19.253Z,95376.66
2023-05-20T14:36:46.592Z,95370.81
2023-05-20T14:39:14.226Z,95376.09
2023-05-20T14:41:41.425Z,95375.84
2023-05-20T14:44:09.052Z,95374.78
2023-05-20T14:46:36.666Z,95379.41
2023-05-20T14:49:04.292Z,95362.84
2023-05-20T14:51:31.693Z,95371.28
2023-05-20T14:53:59.326Z,95384.69
2023-05-20T14:56:27.141Z,95370.72
2023-05-20T14:58:54.674Z,95352.06
2023-05-20T15:01:22.013Z,95364.38
2023-05-20T15:03:51.464Z,95359.56
2023-05-20T15:06:18.982Z,95363.06
2023-05-20T15:08:46.949Z,95361.78
2023-05-20T15:11:14.232Z,95349.81
2023-05-20T15:13:46.616Z,95360.31
2023-05-20T15:16:14.191Z,95371.34
2023-05-20T15:18:41.912Z,95363.41
2023-05-20T15:21:09.272Z,95367.44
2023-05-20T15:23:36.926Z,95354.28
2023-05-20T15:26:05.817Z,95366.56
2023-05-20T15:28:33.524Z,95358.13
2023-05-20T15:31:00.905Z,95360.47
2023-05-20T15:33:31.230Z,95372.06
2023-05-20T15:35:58.651Z,95369.97
2023-05-20T15:38:26.300Z,95350.97
2023-05-20T15:40:53.516Z,95369.41
2023-05-20T15:43:21.115Z,95369.41
2023-05-20T15:45:48.546Z,95349.44
2023-05-20T15:48:16.572Z,95361.47
2023-05-20T15:50:45.303Z,95332.78
2023-05-20T15:53:15.469Z,95348.94
2023-05-20T15:55:43.025Z,95335.84
2023-05-20T15:58:11.900Z,95345.84
2023-05-20T16:00:39.394Z,95347.41
2023-05-20T16:03:07.282Z,95341.09
2023-05-20T16:05:34.915Z,95350.56
2023-05-20T16:08:03.928Z,95360.38
2023-05-20T16:10:34.481Z,95353.75
2023-05-20T16:13:02.662Z,95349.44
2023-05-20T16:15:36.652Z,95357.88
2023-05-20T16:18:05.098Z,95349.88
2023-05-20T16:20:32.604Z,95372.50
2023-05-20T16:23:01.941Z,95360.03
2023-05-20T16:25:29.334Z,95369.72
2023-05-20T16:28:01.149Z,95343.72
2023-05-20T16:30:28.443Z,95360.94
2023-05-20T16:32:56.397Z,95365.84
2023-05-20T16:35:23.756Z,95357.53
2023-05-20T16:37:51.396Z,95357.81
2023-05-20T16:40:19.456Z,95347.44
2023-05-20T16:42:47.104Z,95354.25
2023-05-20T16:45:14.453Z,95342.50
2023-05-20T16:47:42.120Z,95344.66
2023-05-20T16:50:09.932Z,95350.38
2023-05-20T16:52:42.070Z,95346.63
2023-05-20T16:55:10.486Z,95355.28
2023-05-20T16:57:38.150Z,95342.97
2023-05-20T17:00:08.365Z,95347.41
2023-05-20T17:02:36.328Z,95351.84
2023-05-20T17:05:04.607Z,95358.53
2023-05-20T17:07:34.694Z,95370.47
2023-05-20T17:10:02.253Z,95371.53
2023-05-20T17:12:30.144Z,95362.50
2023-05-20T17:14:57.401Z,95366.28
2023-05-20T17:17:25.079Z,95369.03
2023-05-20T17:19:52.578Z,95369.13
2023-05-20T17:22:20.154Z,95368.81
2023-05-20T17:24:47.356Z,95357.31
2023-05-20T17:27:15.002Z,95365.84
2023-05-20T17:29:42.402Z,95365.50
2023-05-20T17:32:10.315Z,95360.91
2023-05-20T17:34:37.643Z,95353.69
2023-05-20T17:37:05.350Z,95354.25
2023-05-20T17:39:32.590Z,95361.06
2023-05-20T17:42:00.244Z,95360.00
2023-05-20T17:44:27.670Z,95354.63
2023-05-20T17:46:55.288Z,95358.22
2023-05-20T17:49:22.563Z,95349.91
2023-05-20T17:51:50.241Z,95355.16
2023-05-20T17:54:17.594Z,95360.00
2023-05-20T17:56:47.819Z,95358.63
2023-05-20T17:59:15.169Z,95363.00
2023-05-20T18:01:43.028Z,95369.78
2023-05-20T18:04:11.313Z,95378.00
2023-05-20T18:06:39.108Z,95376.47
2023-05-20T18:09:06.544Z,95386.28
2023-05-20T18:11:35.264Z,95399.63
2023-05-20T18:14:03.055Z,95399.16
2023-05-20T18:16:31.190Z,95387.78
2023-05-20T18:18:58.717Z,95396.63
2023-05-20T18:21:26.648Z,95403.56
2023-05-20T18:23:54.720Z,95392.16
2023-05-20T18:26:24.816Z,95390.72
2023-05-20T18:28:52.484Z,95386.56
2023-05-20T18:31:19.842Z,95385.16
2023-05-20T18:33:47.539Z,95393.50
2023-05-20T18:36:14.953Z,95401.03
2023-05-20T18:38:43.353Z,95396.38
2023-05-20T18:41:11.124Z,95397.34
2023-05-20T18:43:38.889Z,95400.88
2023-05-20T18:46:06.519Z,95393.47
2023-05-20T18:48:34.398Z,95395.72
2023-05-20T18:51:01.673Z,95396.38
2023-05-20T18:53:29.467Z,95401.34
2023-05-20T18:56:01.386Z,95400.53
2023-05-20T18:58:29.888Z,95397.47
2023-05-20T19:00:57.295Z,95401.66
2023-05-20T19:03:26.526Z,95399.72
2023-05-20T19:05:53.881Z,95406.63
2023-05-20T19:08:23.354Z,95408.38
2023-05-20T19:10:50.678Z,95395.25
2023-05-20T19:13:18.699Z,95395.06
2023-05-20T19:15:46.006Z,95387.19
2023-05-20T19:18:14.422Z,95400.50
2023-05-20T19:20:42.003Z,95413.13
2023-05-20T19:23:10.246Z,95399.50
2023-05-20T19:25:38.011Z,95418.84
2023-05-20T19:28:05.988Z,95426.03
2023-05-20T19:30:33.790Z,95425.31
2023-05-20T19:33:03.913Z,95431.53
2023-05-20T19:35:32.949Z,95433.13
2023-05-20T19:38:00.678Z,95436.72
2023-05-20T19:40:28.720Z,95438.41
2023-05-20T19:42:56.097Z,95441.69
2023-05-20T19:45:23.953Z,95418.75
2023-05-20T19:47:52.009Z,95432.00
2023-05-20T19:50:19.992Z,95424.41
2023-05-20T19:52:47.289Z,95428.38
2023-05-20T19:55:15.415Z,95428.19
2023-05-20T19:57:44.125Z,95427.03
2023-05-20T20:00:12.556Z,95433.31
2023-05-20T20:02:42.790Z,95436.16
2023-05-20T20:05:10.557Z,95429.25
2023-05-20T20:07:38.246Z,95424.84
2023-05-20T20:10:06.587Z,95432.50
2023-05-20T20:12:34.136Z,95421.97
2023-05-20T20:15:01.746Z,95430.41
2023-05-20T20:17:30.430Z,95437.13
2023-05-20T20:19:58.196Z,95437.13
2023-05-20T20:22:25.529Z,95435.63
2023-05-20T20:24:53.108Z,95440.25
2023-05-20T20:27:20.617Z,95437.78
2023-05-20T20:29:48.181Z,95418.00
2023-05-20T20:32:15.812Z,95419.69
2023-05-20T20:34:44.322Z,95442.31
2023-05-20T20:37:15.268Z,95438.19
2023-05-20T20:39:45.554Z,95429.78
2023-05-20T20:42:12.855Z,95423.66
2023-05-20T20:44:42.900Z,95444.47
2023-05-20T20:47:14.869Z,95440.03
2023-05-20T20:49:46.516Z,95443.56
2023-05-20T20:52:13.834Z,95446.66
2023-05-20T20:54:43.352Z,95443.66
2023-05-20T20:57:11.801Z,95435.91
2023-05-20T20:59:40.052Z,95424.53
2023-05-20T21:02:07.320Z,95437.00
2023-05-20T21:04:35.137Z,95437.78
2023-05-20T21:07:02.921Z,95440.22
2023-05-20T21:09:30.719Z,95430.13
2023-05-20T21:12:00.637Z,95427.34
2023-05-20T21:14:28.652Z,95427.13
2023-05-20T21:16:55.964Z,95426.34
2023-05-20T21:19:23.551Z,95409.75
2023-05-20T21:21:53.078Z,95431.75
2023-05-20T21:24:20.651Z,95415.28
2023-05-20T21:26:48.107Z,95426.13
2023-05-20T21:29:15.646Z,95430.34
2023-05-20T21:31:42.867Z,95423.91
2023-05-20T21:34:11.365Z,95421.22
2023-05-20T21:36:38.557Z,95425.22
2023-05-20T21:39:07.042Z,95427.53
2023-05-20T21:41:35.162Z,95416.06
2023-05-20T21:44:02.825Z,95403.63
2023-05-20T21:46:30.065Z,95409.78
2023-05-20T21:48:57.934Z,95417.69
2023-05-20T21:51:25.193Z,95414.09
2023-05-20T21:53:52.732Z,95404.63
2023-05-20T21:56:19.972Z,95411.13
2023-05-20T21:58:48.098Z,95408.75
2023-05-20T22:01:15.629Z,95401.97
2023-05-20T22:03:51.243Z,95392.94
2023-05-20T22:06:21.643Z,95393.44
2023-05-20T22:08:49.724Z,95400.38
2023-05-20T22:11:19.982Z,95396.28
2023-05-20T22:13:50.942Z,95385.16
2023-05-20T22:16:19.184Z,95383.13
2023-05-20T22:18:48.088Z,95399.59
2023-05-20T22:21:15.911Z,95399.59
2023-05-20T22:23:43.456Z,95372.50
2023-05-20T22:26:10.667Z,95392.16
2023-05-20T22:28:38.608Z,95387.94
2023-05-20T22:31:06.474Z,95393.97
2023-05-20T22:33:35.008Z,95378.50
2023-05-20T22:36:04.772Z,95394.94
2023-05-20T22:38:32.710Z,95389.41
2023-05-20T22:40:59.959Z,95384.38
2023-05-20T22:43:27.457Z,95389.00
2023-05-20T22:45:54.718Z,95383.06
2023-05-20T22:48:23.261Z,95382.06
2023-05-20T22:50:51.122Z,95386.84
2023-05-20T22:53:18.631Z,95370.78
2023-05-20T22:55:46.283Z,95375.63
2023-05-20T22:58:14.054Z,95373.94
2023-05-20T23:00:41.501Z,95365.97
2023-05-20T23:03:12.545Z,95376.50
2023-05-20T23:05:39.809Z,95382.59
2023-05-20T23:08:07.352Z,95376.53
2023-05-20T23:10:34.703Z,95384.94
2023-05-20T23:13:02.236Z,95385.66
2023-05-20T23:15:31.256Z,95372.63
2023-05-20T23:17:58.849Z,95379.72
2023-05-20T23:20:29.386Z,95377.91
2023-05-20T23:22:57.018Z,95369.50
2023-05-20T23:25:27.053Z,95377.38
2023-05-20T23:27:54.593Z,95381.19
2023-05-20T23:30:21.729Z,95377.91
2023-05-20T23:32:50.239Z,95367.97
2023-05-20T23:35:18.720Z,95363.47
2023-05-20T23:37:49.089Z,95366.19
2023-05-20T23:40:16.479Z,95363.56
2023-05-20T23:42:43.973Z,95369.03
2023-05-20T23:45:11.814Z,95358.88
2023-05-20T23:47:39.413Z,95376.69
2023-05-20T23:50:06.986Z,95365.59
2023-05-20T23:52:34.570Z,95364.72
2023-05-20T23:55:01.784Z,95369.19
2023-05-20T23:57:29.433Z,95374.53
2023-05-20T23:59:56.595Z,95369.91
